createdAt,value
2022-10-20T00:00:15.607Z,17.10
2022-10-20T00:03:19.866Z,14.82
2022-10-20T00:06:24.367Z,19.90
2022-10-20T00:09:27.276Z,16.20
2022-10-20T00:12:29.863Z,14.57
2022-10-20T00:15:32.460Z,20.17
2022-10-20T00:18:36.838Z,16.50
2022-10-20T00:21:39.633Z,17.07
2022-10-20T00:24:42.363Z,22.17
2022-10-20T00:27:45.044Z,14.15
2022-10-20T00:30:47.760Z,13.87
2022-10-20T00:33:51.978Z,13.73
2022-10-20T00:36:54.725Z,14.67
2022-10-20T00:39:57.302Z,16.45
2022-10-20T00:42:59.962Z,16.10
2022-10-20T00:46:02.838Z,17.17
2022-10-20T00:49:09.587Z,18.27
2022-10-20T00:52:12.587Z,17.67
2022-10-20T00:55:20.849Z,17.75
2022-10-20T00:58:23.594Z,18.27
2022-10-20T01:01:26.351Z,19.65
2022-10-20T01:04:31.910Z,19.23
2022-10-20T01:07:34.854Z,16.90
2022-10-20T01:10:42.237Z,17.02
2022-10-20T01:13:52.794Z,14.53
2022-10-20T01:17:01.527Z,18.53
2022-10-20T01:20:24.605Z,16.87
2022-10-20T01:23:47.501Z,17.60
2022-10-20T01:27:27.505Z,17.23
2022-10-20T01:30:32.722Z,19.00
2022-10-20T01:33:40.447Z,14.17
2022-10-20T01:36:50.414Z,16.47
2022-10-20T01:39:54.820Z,21.83
2022-10-20T01:43:00.770Z,17.07
2022-10-20T01:46:05.274Z,18.90
2022-10-20T01:49:08.247Z,18.27
2022-10-20T01:52:11.666Z,21.40
2022-10-20T01:55:16.052Z,16.48
2022-10-20T01:58:48.784Z,18.87
2022-10-20T02:02:11.861Z,18.37
2022-10-20T02:05:21.675Z,22.10
2022-10-20T02:08:29.521Z,18.77
2022-10-20T02:11:39.394Z,15.67
2022-10-20T02:14:42.799Z,21.03
2022-10-20T02:17:48.142Z,16.35
2022-10-20T02:20:53.062Z,17.90
2022-10-20T02:23:56.885Z,17.53
2022-10-20T02:27:02.945Z,23.20
2022-10-20T02:30:07.997Z,16.17
2022-10-20T02:33:12.725Z,21.03
2022-10-20T02:36:19.007Z,14.87
2022-10-20T02:39:21.656Z,19.53
2022-10-20T02:42:24.349Z,19.90
2022-10-20T02:45:27.035Z,20.40
2022-10-20T02:48:30.936Z,15.88
2022-10-20T02:51:33.598Z,22.70
2022-10-20T02:54:36.209Z,17.27
2022-10-20T02:57:39.244Z,17.70
2022-10-20T03:00:42.339Z,23.67
2022-10-20T03:03:46.362Z,15.68
2022-10-20T03:06:48.997Z,22.37
2022-10-20T03:09:51.541Z,16.67
2022-10-20T03:12:54.181Z,22.33
2022-10-20T03:15:56.822Z,19.93
2022-10-20T03:19:03.983Z,19.37
2022-10-20T03:22:09.983Z,18.77
2022-10-20T03:25:12.561Z,18.05
2022-10-20T03:28:21.964Z,19.50
2022-10-20T03:31:24.554Z,19.60
2022-10-20T03:34:28.640Z,17.67
2022-10-20T03:37:31.338Z,18.53
2022-10-20T03:40:33.935Z,14.60
2022-10-20T03:43:36.634Z,16.67
2022-10-20T03:46:39.286Z,15.85
2022-10-20T03:49:46.081Z,20.63
2022-10-20T03:52:49.290Z,17.47
2022-10-20T03:55:52.044Z,21.20
2022-10-20T03:58:54.850Z,21.52
2022-10-20T04:01:57.649Z,23.00
2022-10-20T04:05:02.153Z,22.27
2022-10-20T04:08:05.271Z,20.43
2022-10-20T04:11:07.969Z,23.60
2022-10-20T04:14:10.840Z,23.87
2022-10-20T04:17:13.530Z,27.00
2022-10-20T04:20:17.626Z,21.23
2022-10-20T04:23:20.357Z,23.50
2022-10-20T04:26:24.066Z,25.77
2022-10-20T04:32:29.434Z,23.27
2022-10-20T04:35:34.184Z,23.50
2022-10-20T04:38:36.913Z,22.37
2022-10-20T04:41:39.565Z,21.30
2022-10-20T04:44:42.161Z,25.37
2022-10-20T04:47:44.827Z,19.97
2022-10-20T04:50:48.787Z,19.67
2022-10-20T04:53:51.383Z,20.07
2022-10-20T04:56:54.077Z,17.17
2022-10-20T04:59:56.834Z,20.07
2022-10-20T05:02:59.672Z,18.95
2022-10-20T05:06:16.038Z,23.63
2022-10-20T05:09:18.625Z,21.53
2022-10-20T05:12:21.535Z,21.13
2022-10-20T05:15:24.328Z,22.38
2022-10-20T05:18:27.030Z,20.27
2022-10-20T05:21:32.558Z,21.00
2022-10-20T05:24:35.390Z,17.40
2022-10-20T05:27:37.982Z,16.98
2022-10-20T05:33:45.742Z,18.90
2022-10-20T05:36:49.666Z,18.00
2022-10-20T05:39:52.388Z,19.73
2022-10-20T05:42:55.269Z,18.80
2022-10-20T05:45:57.887Z,17.90
2022-10-20T05:49:01.936Z,19.80
2022-10-20T05:52:06.130Z,21.60
2022-10-20T05:55:10.469Z,16.60
2022-10-20T05:58:13.271Z,17.43
2022-10-20T06:01:19.657Z,14.88
2022-10-20T06:04:24.407Z,28.87
2022-10-20T06:07:28.657Z,19.77
2022-10-20T06:10:31.237Z,17.87
2022-10-20T06:13:34.659Z,16.70
2022-10-20T06:16:37.761Z,17.63
2022-10-20T06:19:40.499Z,14.48
2022-10-20T06:22:44.750Z,14.95
2022-10-20T06:25:47.449Z,17.50
2022-10-20T06:28:52.543Z,15.15
2022-10-20T06:31:56.102Z,16.70
2022-10-20T06:38:02.576Z,15.97
2022-10-20T06:41:06.549Z,12.73
2022-10-20T06:44:09.528Z,16.80
2022-10-20T06:47:15.866Z,14.48
2022-10-20T06:50:18.831Z,15.20
2022-10-20T06:53:23.150Z,14.48
2022-10-20T06:56:27.209Z,14.47
2022-10-20T06:59:29.820Z,13.13
2022-10-20T07:02:33.161Z,12.87
2022-10-20T07:05:36.087Z,14.15
2022-10-20T07:08:40.277Z,10.68
2022-10-20T07:11:43.306Z,9.87
2022-10-20T07:14:46.114Z,9.77
2022-10-20T07:17:49.958Z,12.40
2022-10-20T07:20:52.969Z,8.80
2022-10-20T07:23:57.643Z,7.90
2022-10-20T07:27:00.516Z,10.07
2022-10-20T07:30:05.049Z,7.63
2022-10-20T07:33:08.197Z,8.63
2022-10-20T07:36:16.430Z,7.07
2022-10-20T07:39:20.624Z,5.90
2022-10-20T07:42:23.238Z,7.67
2022-10-20T07:45:25.846Z,8.70
2022-10-20T07:48:28.675Z,7.38
2022-10-20T07:51:33.131Z,8.93
2022-10-20T07:54:37.565Z,8.77
2022-10-20T07:57:40.751Z,7.73
2022-10-20T08:00:43.390Z,8.68
2022-10-20T08:03:46.068Z,7.00
2022-10-20T08:06:48.835Z,8.15
2022-10-20T08:09:52.950Z,10.32
2022-10-20T08:12:55.673Z,9.27
2022-10-20T08:16:02.277Z,7.22
2022-10-20T08:22:24.385Z,8.90
2022-10-20T08:25:29.077Z,6.07
2022-10-20T08:28:31.786Z,7.50
2022-10-20T08:31:34.438Z,6.40
2022-10-20T08:34:37.692Z,6.25
2022-10-20T08:37:41.182Z,5.47
2022-10-20T08:46:51.648Z,7.38
2022-10-20T08:53:00.555Z,5.73
2022-10-20T08:56:04.595Z,9.43
2022-10-20T08:59:22.223Z,6.37
2022-10-20T09:02:25.017Z,4.80
2022-10-20T09:05:30.703Z,6.90
2022-10-20T09:08:36.589Z,5.30
2022-10-20T09:11:41.198Z,6.80
2022-10-20T09:14:44.125Z,8.37
2022-10-20T09:17:49.380Z,3.83
2022-10-20T09:20:54.764Z,9.47
2022-10-20T09:24:02.038Z,5.90
2022-10-20T09:27:22.387Z,4.30
2022-10-20T09:30:33.357Z,4.93
2022-10-20T09:33:36.553Z,5.23
2022-10-20T09:36:42.027Z,6.43
2022-10-20T09:39:55.373Z,4.60
2022-10-20T09:43:03.152Z,7.33
2022-10-20T09:46:08.072Z,8.97
2022-10-20T09:49:23.832Z,8.33
2022-10-20T09:52:30.546Z,8.77
2022-10-20T09:55:35.274Z,4.53
2022-10-20T09:58:42.138Z,3.70
2022-10-20T10:01:54.561Z,5.60
2022-10-20T10:05:14.696Z,6.13
2022-10-20T10:08:18.042Z,6.20
2022-10-20T10:14:25.621Z,6.07
2022-10-20T10:17:31.634Z,5.17
2022-10-20T10:20:36.472Z,6.13
2022-10-20T10:23:52.304Z,10.23
2022-10-20T10:26:55.517Z,4.23
2022-10-20T10:30:28.542Z,5.65
2022-10-20T10:33:33.108Z,4.63
2022-10-20T10:36:37.571Z,6.90
2022-10-20T10:39:40.219Z,6.43
2022-10-20T10:43:02.838Z,6.03
2022-10-20T10:46:08.646Z,5.20
2022-10-20T10:49:38.941Z,5.70
2022-10-20T10:52:48.570Z,4.70
2022-10-20T10:55:58.424Z,8.10
2022-10-20T10:59:07.242Z,5.93
2022-10-20T11:02:31.005Z,6.30
2022-10-20T11:06:13.336Z,4.93
2022-10-20T11:09:22.797Z,4.47
2022-10-20T11:12:41.244Z,6.27
2022-10-20T11:15:59.392Z,6.93
2022-10-20T11:19:42.288Z,6.23
2022-10-20T11:22:48.974Z,5.50
2022-10-20T11:25:55.246Z,5.57
2022-10-20T11:28:59.343Z,7.77
2022-10-20T11:32:10.501Z,5.77
2022-10-20T11:35:23.090Z,8.80
2022-10-20T11:38:31.555Z,9.52
2022-10-20T11:41:39.401Z,7.23
2022-10-20T11:44:44.577Z,9.63
2022-10-20T11:47:48.117Z,10.23
2022-10-20T11:50:57.986Z,3.10
2022-10-20T11:54:13.174Z,10.73
2022-10-20T11:57:21.689Z,6.77
2022-10-20T12:00:37.465Z,6.23
2022-10-20T12:03:53.426Z,6.53
2022-10-20T12:07:26.137Z,5.60
2022-10-20T12:10:35.002Z,3.30
2022-10-20T12:13:44.881Z,6.53
2022-10-20T12:17:15.428Z,5.53
2022-10-20T12:21:02.216Z,14.10
2022-10-20T12:24:36.738Z,10.97
2022-10-20T12:27:39.334Z,3.77
2022-10-20T12:30:44.387Z,3.53
2022-10-20T12:34:03.866Z,3.90
2022-10-20T12:37:10.396Z,7.10
2022-10-20T12:40:26.798Z,8.10
2022-10-20T12:43:36.333Z,6.40
2022-10-20T12:46:43.442Z,5.10
2022-10-20T12:49:54.745Z,7.10
2022-10-20T12:52:59.387Z,9.53
2022-10-20T12:56:06.925Z,7.57
2022-10-20T12:59:26.344Z,5.07
2022-10-20T13:02:33.843Z,5.17
2022-10-20T13:05:54.166Z,7.97
2022-10-20T13:09:26.909Z,8.40
2022-10-20T13:12:40.962Z,9.77
2022-10-20T13:15:46.183Z,5.27
2022-10-20T13:18:50.792Z,10.27
2022-10-20T13:21:53.820Z,10.80
2022-10-20T13:24:57.398Z,7.05
2022-10-20T13:28:06.915Z,9.83
2022-10-20T13:31:19.430Z,7.77
2022-10-20T13:34:26.574Z,5.83
2022-10-20T13:37:46.221Z,9.83
2022-10-20T13:40:56.128Z,12.77
2022-10-20T13:44:06.244Z,5.60
2022-10-20T13:47:19.460Z,9.30
2022-10-20T13:50:24.278Z,10.45
2022-10-20T13:53:29.205Z,7.30
2022-10-20T13:56:35.785Z,5.10
2022-10-20T13:59:43.134Z,8.17
2022-10-20T14:02:58.468Z,7.20
2022-10-20T14:09:13.751Z,10.13
2022-10-20T14:12:22.839Z,10.73
2022-10-20T14:15:30.519Z,4.53
2022-10-20T14:18:38.202Z,6.37
2022-10-20T14:21:41.934Z,9.03
2022-10-20T14:24:46.386Z,5.63
2022-10-20T14:27:51.497Z,3.70
2022-10-20T14:30:55.602Z,12.47
2022-10-20T14:33:58.567Z,5.77
2022-10-20T14:37:01.851Z,7.88
2022-10-20T14:43:16.305Z,6.80
2022-10-20T14:46:24.952Z,7.33
2022-10-20T14:49:30.529Z,5.47
2022-10-20T14:52:35.534Z,4.67
2022-10-20T14:55:38.479Z,4.07
2022-10-20T14:58:58.194Z,8.63
2022-10-20T15:02:09.260Z,10.40
2022-10-20T15:05:23.797Z,8.30
2022-10-20T15:08:28.814Z,5.23
2022-10-20T15:11:32.876Z,4.57
2022-10-20T15:14:35.983Z,8.60
2022-10-20T15:17:44.505Z,8.60
2022-10-20T15:20:47.891Z,9.47
2022-10-20T15:23:51.492Z,5.13
2022-10-20T15:26:54.714Z,5.77
2022-10-20T15:29:57.369Z,8.93
2022-10-20T15:33:01.593Z,7.70
2022-10-20T15:36:04.543Z,6.40
2022-10-20T15:39:07.313Z,15.68
2022-10-20T15:42:12.022Z,7.18
2022-10-20T15:45:17.273Z,6.27
2022-10-20T15:48:22.274Z,10.70
2022-10-20T15:51:27.478Z,15.47
2022-10-20T15:54:30.383Z,8.80
2022-10-20T15:57:33.197Z,11.70
2022-10-20T16:00:36.273Z,7.25
2022-10-20T16:03:43.257Z,8.02
2022-10-20T16:06:46.149Z,7.73
2022-10-20T16:09:48.894Z,11.75
2022-10-20T16:12:51.927Z,11.93
2022-10-20T16:15:54.678Z,10.07
2022-10-20T16:18:58.865Z,8.60
2022-10-20T16:22:01.572Z,5.37
2022-10-20T16:25:05.481Z,11.30
2022-10-20T16:31:34.924Z,8.67
2022-10-20T16:34:38.926Z,7.30
2022-10-20T16:37:43.465Z,8.53
2022-10-20T16:40:46.150Z,8.50
2022-10-20T16:43:49.054Z,9.57
2022-10-20T16:46:51.934Z,8.45
2022-10-20T16:49:55.955Z,9.98
2022-10-20T16:53:01.459Z,8.03
2022-10-20T16:56:04.548Z,7.17
2022-10-20T16:59:07.184Z,14.02
2022-10-20T17:02:11.526Z,9.48
2022-10-20T17:05:16.573Z,11.87
2022-10-20T17:08:19.326Z,12.87
2022-10-20T17:11:24.242Z,8.55
2022-10-20T17:14:27.081Z,15.73
2022-10-20T17:17:29.996Z,10.07
2022-10-20T17:20:38.214Z,11.07
2022-10-20T17:23:43.132Z,10.10
2022-10-20T17:26:45.802Z,11.73
2022-10-20T17:29:48.512Z,10.07
2022-10-20T17:32:51.285Z,12.80
2022-10-20T17:35:56.166Z,11.73
2022-10-20T17:39:00.759Z,10.97
2022-10-20T17:42:03.428Z,16.03
2022-10-20T17:45:07.075Z,16.15
2022-10-20T17:48:10.897Z,10.93
2022-10-20T17:51:16.103Z,16.27
2022-10-20T17:54:18.783Z,18.10
2022-10-20T17:57:21.482Z,10.98
2022-10-20T18:00:43.946Z,13.50
2022-10-20T18:03:48.285Z,19.23
2022-10-20T18:06:52.830Z,12.80
2022-10-20T18:09:55.627Z,15.97
2022-10-20T18:12:58.478Z,15.63
2022-10-20T18:16:04.830Z,13.95
2022-10-20T18:19:14.250Z,19.20
2022-10-20T18:22:18.422Z,21.27
2022-10-20T18:25:21.248Z,12.23
2022-10-20T18:28:25.127Z,13.43
2022-10-20T18:31:30.591Z,13.87
2022-10-20T18:34:33.347Z,15.43
2022-10-20T18:37:37.736Z,16.52
2022-10-20T18:40:40.808Z,18.77
2022-10-20T18:43:45.373Z,16.35
2022-10-20T18:46:48.600Z,20.03
2022-10-20T18:49:51.126Z,21.90
2022-10-20T18:52:55.517Z,20.65
2022-10-20T18:56:01.825Z,22.17
2022-10-20T18:59:06.313Z,18.50
2022-10-20T19:02:11.269Z,20.37
2022-10-20T19:05:13.877Z,16.97
2022-10-20T19:08:17.961Z,15.60
2022-10-20T19:11:22.263Z,17.90
2022-10-20T19:14:25.124Z,18.90
2022-10-20T19:17:27.866Z,16.50
2022-10-20T19:20:31.160Z,17.17
2022-10-20T19:23:36.920Z,16.67
2022-10-20T19:26:41.052Z,16.87
2022-10-20T19:29:43.839Z,21.47
2022-10-20T19:32:51.354Z,19.80
2022-10-20T19:35:54.177Z,29.90
2022-10-20T19:38:58.499Z,21.50
2022-10-20T19:42:03.726Z,20.77
2022-10-20T19:45:07.290Z,22.10
2022-10-20T19:48:09.894Z,18.07
2022-10-20T19:51:12.793Z,22.77
2022-10-20T19:54:16.841Z,26.17
2022-10-20T19:57:19.487Z,27.87
2022-10-20T20:00:22.158Z,22.75
2022-10-20T20:03:24.919Z,23.88
2022-10-20T20:06:28.792Z,26.17
2022-10-20T20:09:32.756Z,28.40
2022-10-20T20:12:35.329Z,25.33
2022-10-20T20:15:37.941Z,20.42
2022-10-20T20:18:41.087Z,20.58
2022-10-20T20:21:44.133Z,30.33
2022-10-20T20:24:48.355Z,20.88
2022-10-20T20:27:51.113Z,23.13
2022-10-20T20:31:00.252Z,23.35
2022-10-20T20:34:03.430Z,22.30
2022-10-20T20:37:06.270Z,19.83
2022-10-20T20:40:11.402Z,19.63
2022-10-20T20:43:14.109Z,20.47
2022-10-20T20:46:19.572Z,20.90
2022-10-20T20:49:22.369Z,17.60
2022-10-20T20:52:26.024Z,23.90
2022-10-20T20:55:30.232Z,20.23
2022-10-20T20:58:33.330Z,21.13
2022-10-20T21:01:36.126Z,18.95
2022-10-20T21:04:38.864Z,18.42
2022-10-20T21:07:41.607Z,17.98
2022-10-20T21:10:46.088Z,27.55
2022-10-20T21:13:50.512Z,26.10
2022-10-20T21:16:53.399Z,23.80
2022-10-20T21:19:56.083Z,19.95
2022-10-20T21:22:58.906Z,24.38
2022-10-20T21:26:03.325Z,22.08
2022-10-20T21:29:06.547Z,23.53
2022-10-20T21:32:09.294Z,23.13
2022-10-20T21:35:12.001Z,25.38
2022-10-20T21:38:14.904Z,32.33
2022-10-20T21:41:20.065Z,29.98
2022-10-20T21:44:22.731Z,26.90
2022-10-20T21:47:25.689Z,30.80
2022-10-20T21:50:28.480Z,28.92
2022-10-20T21:53:31.283Z,32.17
2022-10-20T21:56:37.270Z,30.10
2022-10-20T21:59:39.916Z,28.47
2022-10-20T22:02:42.806Z,34.88
2022-10-20T22:05:45.604Z,31.45
2022-10-20T22:08:49.915Z,31.23
2022-10-20T22:11:56.649Z,31.50
2022-10-20T22:14:59.374Z,28.67
2022-10-20T22:18:02.150Z,33.13
2022-10-20T22:21:06.730Z,30.58
2022-10-20T22:24:11.504Z,22.20
2022-10-20T22:27:25.286Z,37.80
2022-10-20T22:33:40.587Z,27.83
2022-10-20T22:36:44.407Z,24.88
2022-10-20T22:39:47.246Z,28.67
2022-10-20T22:42:51.317Z,25.60
2022-10-20T22:45:54.124Z,30.77
2022-10-20T22:48:56.664Z,28.92
2022-10-20T22:51:59.463Z,28.60
2022-10-20T22:55:02.123Z,26.50
2022-10-20T22:58:06.180Z,31.80
2022-10-20T23:01:10.822Z,30.07
2022-10-20T23:04:13.616Z,29.77
2022-10-20T23:07:16.297Z,29.15
2022-10-20T23:10:19.373Z,28.83
2022-10-20T23:13:23.582Z,27.98
2022-10-20T23:16:26.593Z,32.43
2022-10-20T23:19:29.390Z,28.40
2022-10-20T23:22:32.165Z,26.15
2022-10-20T23:28:40.123Z,33.03
2022-10-20T23:31:42.736Z,33.33
2022-10-20T23:34:45.542Z,36.80
2022-10-20T23:37:48.253Z,32.28
2022-10-20T23:40:50.794Z,28.90
2022-10-20T23:43:54.766Z,35.23
2022-10-20T23:46:57.487Z,34.77
2022-10-20T23:50:00.204Z,32.03
2022-10-20T23:53:03.128Z,33.03
2022-10-20T23:56:06.183Z,29.92
2022-10-20T23:59:10.639Z,40.45
